sensor_id;sensor_type;location;lat;lon;timestamp;P1;durP1;ratioP1;P2;durP2;ratioP2
53753;SDS011;39667;52.274;20.964;2022-11-14T00:02:23;17.30;;;13.30;;
53753;SDS011;39667;52.274;20.964;2022-11-14T00:05:08;16.20;;;13.90;;
53753;SDS011;39667;52.274;20.964;2022-11-14T00:07:53;16.50;;;12.90;;
53753;SDS011;39667;52.274;20.964;2022-11-14T00:10:37;15.70;;;12.90;;
53753;SDS011;39667;52.274;20.964;2022-11-14T00:13:22;17.70;;;14.30;;
53753;SDS011;39667;52.274;20.964;2022-11-14T00:16:07;17.20;;;14.00;;
53753;SDS011;39667;52.274;20.964;2022-11-14T00:18:52;18.00;;;14.70;;
53753;SDS011;39667;52.274;20.964;2022-11-14T00:21:36;17.80;;;13.60;;
53753;SDS011;39667;52.274;20.964;2022-11-14T00:24:21;17.90;;;14.20;;
53753;SDS011;39667;52.274;20.964;2022-11-14T00:27:06;17.20;;;13.50;;
53753;SDS011;39667;52.274;20.964;2022-11-14T00:29:51;17.40;;;14.30;;
53753;SDS011;39667;52.274;20.964;2022-11-14T00:32:36;15.60;;;13.00;;
53753;SDS011;39667;52.274;20.964;2022-11-14T00:35:20;16.10;;;13.40;;
53753;SDS011;39667;52.274;20.964;2022-11-14T00:38:06;16.20;;;12.70;;
53753;SDS011;39667;52.274;20.964;2022-11-14T00:40:50;16.40;;;11.80;;
53753;SDS011;39667;52.274;20.964;2022-11-14T00:43:35;15.50;;;12.10;;
53753;SDS011;39667;52.274;20.964;2022-11-14T00:46:20;13.40;;;11.80;;
53753;SDS011;39667;52.274;20.964;2022-11-14T00:49:05;13.70;;;11.60;;
53753;SDS011;39667;52.274;20.964;2022-11-14T00:51:50;12.10;;;10.60;;
53753;SDS011;39667;52.274;20.964;2022-11-14T00:54:34;12.90;;;11.40;;
53753;SDS011;39667;52.274;20.964;2022-11-14T00:57:20;12.30;;;10.30;;
53753;SDS011;39667;52.274;20.964;2022-11-14T01:00:05;12.40;;;10.00;;
53753;SDS011;39667;52.274;20.964;2022-11-14T01:02:51;14.00;;;10.80;;
53753;SDS011;39667;52.274;20.964;2022-11-14T01:05:48;11.10;;;9.20;;
53753;SDS011;39667;52.274;20.964;2022-11-14T01:08:34;12.80;;;10.90;;
53753;SDS011;39667;52.274;20.964;2022-11-14T01:11:20;11.30;;;9.70;;
53753;SDS011;39667;52.274;20.964;2022-11-14T01:14:06;11.30;;;10.10;;
53753;SDS011;39667;52.274;20.964;2022-11-14T01:16:52;11.10;;;9.90;;
53753;SDS011;39667;52.274;20.964;2022-11-14T01:19:36;10.80;;;9.70;;
53753;SDS011;39667;52.274;20.964;2022-11-14T01:22:22;11.90;;;9.80;;
53753;SDS011;39667;52.274;20.964;2022-11-14T01:25:07;11.20;;;9.20;;
53753;SDS011;39667;52.274;20.964;2022-11-14T01:27:52;10.30;;;8.90;;
53753;SDS011;39667;52.274;20.964;2022-11-14T01:30:37;11.50;;;9.50;;
53753;SDS011;39667;52.274;20.964;2022-11-14T01:33:25;11.60;;;9.70;;
53753;SDS011;39667;52.274;20.964;2022-11-14T01:36:11;10.70;;;9.20;;
53753;SDS011;39667;52.274;20.964;2022-11-14T01:38:57;12.10;;;8.50;;
53753;SDS011;39667;52.274;20.964;2022-11-14T01:41:41;11.00;;;9.60;;
53753;SDS011;39667;52.274;20.964;2022-11-14T01:47:33;12.00;;;9.70;;
53753;SDS011;39667;52.274;20.964;2022-11-14T01:53:05;12.40;;;9.80;;
53753;SDS011;39667;52.274;20.964;2022-11-14T01:55:50;11.30;;;9.70;;
53753;SDS011;39667;52.274;20.964;2022-11-14T01:58:38;10.00;;;8.40;;
53753;SDS011;39667;52.274;20.964;2022-11-14T02:01:28;10.50;;;9.00;;
53753;SDS011;39667;52.274;20.964;2022-11-14T02:04:27;11.40;;;9.10;;
53753;SDS011;39667;52.274;20.964;2022-11-14T02:07:20;10.70;;;9.50;;
53753;SDS011;39667;52.274;20.964;2022-11-14T02:10:14;10.30;;;9.10;;
53753;SDS011;39667;52.274;20.964;2022-11-14T02:13:00;12.30;;;9.40;;
53753;SDS011;39667;52.274;20.964;2022-11-14T02:15:45;12.90;;;9.10;;
53753;SDS011;39667;52.274;20.964;2022-11-14T02:18:30;10.10;;;8.90;;
53753;SDS011;39667;52.274;20.964;2022-11-14T02:21:16;10.20;;;9.20;;
53753;SDS011;39667;52.274;20.964;2022-11-14T02:24:01;12.60;;;10.70;;
53753;SDS011;39667;52.274;20.964;2022-11-14T02:26:46;11.20;;;9.80;;
53753;SDS011;39667;52.274;20.964;2022-11-14T02:29:31;13.00;;;9.60;;
53753;SDS011;39667;52.274;20.964;2022-11-14T02:35:02;9.30;;;8.30;;
53753;SDS011;39667;52.274;20.964;2022-11-14T02:37:47;11.60;;;9.60;;
53753;SDS011;39667;52.274;20.964;2022-11-14T02:40:33;12.60;;;10.90;;
53753;SDS011;39667;52.274;20.964;2022-11-14T02:43:18;11.00;;;9.80;;
53753;SDS011;39667;52.274;20.964;2022-11-14T02:46:03;12.80;;;10.30;;
53753;SDS011;39667;52.274;20.964;2022-11-14T02:48:50;11.90;;;10.60;;
53753;SDS011;39667;52.274;20.964;2022-11-14T02:51:34;11.00;;;9.80;;
53753;SDS011;39667;52.274;20.964;2022-11-14T02:54:19;11.80;;;10.50;;
53753;SDS011;39667;52.274;20.964;2022-11-14T02:57:04;15.70;;;12.50;;
53753;SDS011;39667;52.274;20.964;2022-11-14T02:59:48;15.70;;;13.30;;
53753;SDS011;39667;52.274;20.964;2022-11-14T03:02:33;16.40;;;14.30;;
53753;SDS011;39667;52.274;20.964;2022-11-14T03:05:18;14.90;;;13.10;;
53753;SDS011;39667;52.274;20.964;2022-11-14T03:08:03;15.10;;;12.70;;
53753;SDS011;39667;52.274;20.964;2022-11-14T03:10:48;16.50;;;14.70;;
53753;SDS011;39667;52.274;20.964;2022-11-14T03:13:33;21.50;;;14.70;;
53753;SDS011;39667;52.274;20.964;2022-11-14T03:16:18;16.20;;;14.40;;
53753;SDS011;39667;52.274;20.964;2022-11-14T03:19:03;16.90;;;14.30;;
53753;SDS011;39667;52.274;20.964;2022-11-14T03:21:48;15.40;;;13.40;;
53753;SDS011;39667;52.274;20.964;2022-11-14T03:24:33;16.40;;;13.30;;
53753;SDS011;39667;52.274;20.964;2022-11-14T03:27:17;15.20;;;12.00;;
53753;SDS011;39667;52.274;20.964;2022-11-14T03:30:03;13.80;;;12.20;;
53753;SDS011;39667;52.274;20.964;2022-11-14T03:32:49;13.70;;;12.20;;
53753;SDS011;39667;52.274;20.964;2022-11-14T03:35:33;14.90;;;13.20;;
53753;SDS011;39667;52.274;20.964;2022-11-14T03:38:19;14.50;;;11.80;;
53753;SDS011;39667;52.274;20.964;2022-11-14T03:41:07;12.80;;;11.40;;
53753;SDS011;39667;52.274;20.964;2022-11-14T03:43:52;13.30;;;12.00;;
53753;SDS011;39667;52.274;20.964;2022-11-14T03:46:37;12.90;;;11.20;;
53753;SDS011;39667;52.274;20.964;2022-11-14T03:49:22;14.30;;;12.40;;
53753;SDS011;39667;52.274;20.964;2022-11-14T03:52:07;14.10;;;12.30;;
53753;SDS011;39667;52.274;20.964;2022-11-14T03:54:51;14.80;;;11.90;;
53753;SDS011;39667;52.274;20.964;2022-11-14T03:57:36;12.90;;;11.40;;
53753;SDS011;39667;52.274;20.964;2022-11-14T04:00:21;11.90;;;10.70;;
53753;SDS011;39667;52.274;20.964;2022-11-14T04:03:05;13.60;;;11.00;;
53753;SDS011;39667;52.274;20.964;2022-11-14T04:05:50;14.40;;;11.70;;
53753;SDS011;39667;52.274;20.964;2022-11-14T04:08:35;12.70;;;11.40;;
53753;SDS011;39667;52.274;20.964;2022-11-14T04:11:23;13.90;;;12.20;;
53753;SDS011;39667;52.274;20.964;2022-11-14T04:14:08;12.20;;;10.90;;
53753;SDS011;39667;52.274;20.964;2022-11-14T04:16:53;13.50;;;11.40;;
53753;SDS011;39667;52.274;20.964;2022-11-14T04:19:38;11.90;;;10.00;;
53753;SDS011;39667;52.274;20.964;2022-11-14T04:22:22;11.20;;;10.00;;
53753;SDS011;39667;52.274;20.964;2022-11-14T04:25:08;12.20;;;9.50;;
53753;SDS011;39667;52.274;20.964;2022-11-14T04:27:53;11.10;;;9.50;;
53753;SDS011;39667;52.274;20.964;2022-11-14T04:30:38;10.70;;;9.60;;
53753;SDS011;39667;52.274;20.964;2022-11-14T04:33:23;12.20;;;8.70;;
53753;SDS011;39667;52.274;20.964;2022-11-14T04:36:08;9.50;;;8.30;;
53753;SDS011;39667;52.274;20.964;2022-11-14T04:38:53;10.70;;;8.70;;
53753;SDS011;39667;52.274;20.964;2022-11-14T04:41:38;9.50;;;8.40;;
53753;SDS011;39667;52.274;20.964;2022-11-14T04:44:23;10.30;;;8.30;;
53753;SDS011;39667;52.274;20.964;2022-11-14T04:47:08;9.20;;;7.60;;
53753;SDS011;39667;52.274;20.964;2022-11-14T04:49:52;9.30;;;8.00;;
53753;SDS011;39667;52.274;20.964;2022-11-14T04:52:37;7.80;;;7.10;;
53753;SDS011;39667;52.274;20.964;2022-11-14T04:55:22;9.90;;;8.10;;
53753;SDS011;39667;52.274;20.964;2022-11-14T04:58:07;10.90;;;9.00;;
53753;SDS011;39667;52.274;20.964;2022-11-14T05:00:52;10.60;;;9.20;;
53753;SDS011;39667;52.274;20.964;2022-11-14T05:03:37;10.30;;;8.10;;
53753;SDS011;39667;52.274;20.964;2022-11-14T05:06:21;9.90;;;8.80;;
53753;SDS011;39667;52.274;20.964;2022-11-14T05:09:06;9.10;;;8.10;;
53753;SDS011;39667;52.274;20.964;2022-11-14T05:11:52;10.80;;;9.50;;
53753;SDS011;39667;52.274;20.964;2022-11-14T05:14:36;11.10;;;8.40;;
53753;SDS011;39667;52.274;20.964;2022-11-14T05:17:21;8.70;;;7.80;;
53753;SDS011;39667;52.274;20.964;2022-11-14T05:20:06;8.50;;;7.30;;
53753;SDS011;39667;52.274;20.964;2022-11-14T05:22:51;8.10;;;6.70;;
53753;SDS011;39667;52.274;20.964;2022-11-14T05:25:39;8.90;;;7.10;;
53753;SDS011;39667;52.274;20.964;2022-11-14T05:28:24;9.10;;;7.50;;
53753;SDS011;39667;52.274;20.964;2022-11-14T05:31:11;8.70;;;7.80;;
53753;SDS011;39667;52.274;20.964;2022-11-14T05:33:58;7.90;;;7.10;;
53753;SDS011;39667;52.274;20.964;2022-11-14T05:36:42;8.30;;;7.30;;
53753;SDS011;39667;52.274;20.964;2022-11-14T05:39:27;9.10;;;8.10;;
53753;SDS011;39667;52.274;20.964;2022-11-14T05:42:12;9.00;;;7.80;;
53753;SDS011;39667;52.274;20.964;2022-11-14T05:44:56;8.30;;;7.40;;
53753;SDS011;39667;52.274;20.964;2022-11-14T05:47:41;9.80;;;8.60;;
53753;SDS011;39667;52.274;20.964;2022-11-14T05:50:26;10.80;;;8.10;;
53753;SDS011;39667;52.274;20.964;2022-11-14T05:53:11;8.90;;;8.00;;
53753;SDS011;39667;52.274;20.964;2022-11-14T05:55:59;8.90;;;7.80;;
53753;SDS011;39667;52.274;20.964;2022-11-14T05:58:48;7.20;;;6.50;;
53753;SDS011;39667;52.274;20.964;2022-11-14T06:01:33;9.10;;;7.10;;
53753;SDS011;39667;52.274;20.964;2022-11-14T06:04:17;7.80;;;7.00;;
53753;SDS011;39667;52.274;20.964;2022-11-14T06:07:03;7.10;;;6.40;;
53753;SDS011;39667;52.274;20.964;2022-11-14T06:09:47;7.40;;;6.60;;
53753;SDS011;39667;52.274;20.964;2022-11-14T06:12:32;7.40;;;6.50;;
53753;SDS011;39667;52.274;20.964;2022-11-14T06:15:17;7.60;;;6.80;;
53753;SDS011;39667;52.274;20.964;2022-11-14T06:18:02;9.50;;;7.10;;
53753;SDS011;39667;52.274;20.964;2022-11-14T06:20:46;8.00;;;7.20;;
53753;SDS011;39667;52.274;20.964;2022-11-14T06:23:31;10.00;;;7.20;;
53753;SDS011;39667;52.274;20.964;2022-11-14T06:26:29;7.80;;;6.90;;
53753;SDS011;39667;52.274;20.964;2022-11-14T06:29:16;7.30;;;6.50;;
53753;SDS011;39667;52.274;20.964;2022-11-14T06:32:00;10.00;;;8.40;;
53753;SDS011;39667;52.274;20.964;2022-11-14T06:34:45;8.20;;;6.90;;
53753;SDS011;39667;52.274;20.964;2022-11-14T06:37:30;9.70;;;7.80;;
53753;SDS011;39667;52.274;20.964;2022-11-14T06:40:18;9.40;;;6.40;;
53753;SDS011;39667;52.274;20.964;2022-11-14T06:43:03;8.70;;;7.10;;
53753;SDS011;39667;52.274;20.964;2022-11-14T06:45:48;8.40;;;6.70;;
53753;SDS011;39667;52.274;20.964;2022-11-14T06:48:32;8.50;;;6.40;;
53753;SDS011;39667;52.274;20.964;2022-11-14T06:54:04;8.00;;;6.70;;
53753;SDS011;39667;52.274;20.964;2022-11-14T06:56:48;7.30;;;6.40;;
53753;SDS011;39667;52.274;20.964;2022-11-14T06:59:33;7.80;;;5.70;;
53753;SDS011;39667;52.274;20.964;2022-11-14T07:02:18;8.30;;;6.00;;
53753;SDS011;39667;52.274;20.964;2022-11-14T07:05:06;5.90;;;5.00;;
53753;SDS011;39667;52.274;20.964;2022-11-14T07:07:51;5.90;;;5.30;;
53753;SDS011;39667;52.274;20.964;2022-11-14T07:10:36;9.70;;;6.50;;
53753;SDS011;39667;52.274;20.964;2022-11-14T07:13:21;9.40;;;6.00;;
53753;SDS011;39667;52.274;20.964;2022-11-14T07:16:05;6.60;;;5.90;;
53753;SDS011;39667;52.274;20.964;2022-11-14T07:18:51;6.50;;;5.30;;
53753;SDS011;39667;52.274;20.964;2022-11-14T07:21:36;6.50;;;5.50;;
53753;SDS011;39667;52.274;20.964;2022-11-14T07:24:21;6.80;;;6.10;;
53753;SDS011;39667;52.274;20.964;2022-11-14T07:27:06;6.40;;;5.80;;
53753;SDS011;39667;52.274;20.964;2022-11-14T07:29:54;7.10;;;6.40;;
53753;SDS011;39667;52.274;20.964;2022-11-14T07:32:39;7.70;;;6.90;;
53753;SDS011;39667;52.274;20.964;2022-11-14T07:35:24;8.10;;;6.80;;
53753;SDS011;39667;52.274;20.964;2022-11-14T07:38:09;8.60;;;7.70;;
53753;SDS011;39667;52.274;20.964;2022-11-14T07:40:55;10.00;;;7.50;;
53753;SDS011;39667;52.274;20.964;2022-11-14T07:43:44;8.80;;;7.90;;
53753;SDS011;39667;52.274;20.964;2022-11-14T07:46:29;9.90;;;8.20;;
53753;SDS011;39667;52.274;20.964;2022-11-14T07:49:14;9.70;;;7.70;;
53753;SDS011;39667;52.274;20.964;2022-11-14T07:51:59;9.80;;;7.60;;
53753;SDS011;39667;52.274;20.964;2022-11-14T07:54:43;8.80;;;6.90;;
53753;SDS011;39667;52.274;20.964;2022-11-14T07:57:28;7.90;;;6.90;;
53753;SDS011;39667;52.274;20.964;2022-11-14T08:00:13;8.00;;;6.60;;
53753;SDS011;39667;52.274;20.964;2022-11-14T08:02:58;7.40;;;6.10;;
53753;SDS011;39667;52.274;20.964;2022-11-14T08:05:43;7.80;;;6.00;;
53753;SDS011;39667;52.274;20.964;2022-11-14T08:08:28;8.40;;;6.00;;
53753;SDS011;39667;52.274;20.964;2022-11-14T08:11:13;8.20;;;5.70;;
53753;SDS011;39667;52.274;20.964;2022-11-14T08:14:19;6.40;;;5.20;;
53753;SDS011;39667;52.274;20.964;2022-11-14T08:17:03;6.80;;;5.40;;
53753;SDS011;39667;52.274;20.964;2022-11-14T08:19:48;5.90;;;5.10;;
53753;SDS011;39667;52.274;20.964;2022-11-14T08:22:33;8.00;;;4.90;;
53753;SDS011;39667;52.274;20.964;2022-11-14T08:25:17;5.50;;;5.00;;
53753;SDS011;39667;52.274;20.964;2022-11-14T08:28:02;8.40;;;5.10;;
53753;SDS011;39667;52.274;20.964;2022-11-14T08:30:47;7.90;;;5.30;;
53753;SDS011;39667;52.274;20.964;2022-11-14T08:33:31;7.40;;;5.20;;
53753;SDS011;39667;52.274;20.964;2022-11-14T08:36:16;6.60;;;5.90;;
53753;SDS011;39667;52.274;20.964;2022-11-14T08:39:01;7.30;;;5.20;;
53753;SDS011;39667;52.274;20.964;2022-11-14T08:41:46;8.30;;;5.60;;
53753;SDS011;39667;52.274;20.964;2022-11-14T08:44:31;7.40;;;5.80;;
53753;SDS011;39667;52.274;20.964;2022-11-14T08:47:16;6.80;;;5.20;;
53753;SDS011;39667;52.274;20.964;2022-11-14T08:50:00;6.40;;;5.80;;
53753;SDS011;39667;52.274;20.964;2022-11-14T08:52:49;9.70;;;6.00;;
53753;SDS011;39667;52.274;20.964;2022-11-14T08:55:35;6.90;;;6.00;;
53753;SDS011;39667;52.274;20.964;2022-11-14T08:58:20;6.40;;;4.90;;
53753;SDS011;39667;52.274;20.964;2022-11-14T09:01:05;5.10;;;4.60;;
53753;SDS011;39667;52.274;20.964;2022-11-14T09:03:51;4.70;;;4.30;;
53753;SDS011;39667;52.274;20.964;2022-11-14T09:06:43;4.70;;;4.20;;
53753;SDS011;39667;52.274;20.964;2022-11-14T09:09:30;4.40;;;3.50;;
53753;SDS011;39667;52.274;20.964;2022-11-14T09:12:15;3.60;;;2.90;;
53753;SDS011;39667;52.274;20.964;2022-11-14T09:15:01;3.80;;;3.00;;
53753;SDS011;39667;52.274;20.964;2022-11-14T09:17:45;7.20;;;3.10;;
53753;SDS011;39667;52.274;20.964;2022-11-14T09:20:31;4.40;;;3.80;;
53753;SDS011;39667;52.274;20.964;2022-11-14T09:23:22;5.60;;;3.20;;
53753;SDS011;39667;52.274;20.964;2022-11-14T09:26:09;3.80;;;3.20;;
53753;SDS011;39667;52.274;20.964;2022-11-14T09:28:53;4.10;;;3.50;;
53753;SDS011;39667;52.274;20.964;2022-11-14T09:31:38;3.50;;;3.20;;
53753;SDS011;39667;52.274;20.964;2022-11-14T09:34:23;5.40;;;3.70;;
53753;SDS011;39667;52.274;20.964;2022-11-14T09:37:08;4.60;;;3.90;;
53753;SDS011;39667;52.274;20.964;2022-11-14T09:39:53;4.20;;;3.90;;
53753;SDS011;39667;52.274;20.964;2022-11-14T09:46:00;4.70;;;3.80;;
53753;SDS011;39667;52.274;20.964;2022-11-14T09:48:46;6.20;;;3.90;;
53753;SDS011;39667;52.274;20.964;2022-11-14T09:51:32;4.30;;;4.00;;
53753;SDS011;39667;52.274;20.964;2022-11-14T09:54:27;5.00;;;4.50;;
53753;SDS011;39667;52.274;20.964;2022-11-14T09:57:19;5.40;;;4.90;;
53753;SDS011;39667;52.274;20.964;2022-11-14T10:00:50;7.90;;;5.60;;
53753;SDS011;39667;52.274;20.964;2022-11-14T10:06:58;7.00;;;5.90;;
53753;SDS011;39667;52.274;20.964;2022-11-14T10:10:12;9.00;;;6.10;;
53753;SDS011;39667;52.274;20.964;2022-11-14T10:16:14;5.10;;;4.50;;
53753;SDS011;39667;52.274;20.964;2022-11-14T10:19:43;4.50;;;4.10;;
53753;SDS011;39667;52.274;20.964;2022-11-14T10:35:20;3.70;;;3.30;;
53753;SDS011;39667;52.274;20.964;2022-11-14T10:40:53;5.10;;;4.30;;
53753;SDS011;39667;52.274;20.964;2022-11-14T10:43:42;6.00;;;4.10;;
53753;SDS011;39667;52.274;20.964;2022-11-14T10:46:29;4.20;;;3.90;;
53753;SDS011;39667;52.274;20.964;2022-11-14T10:49:21;5.50;;;5.00;;
53753;SDS011;39667;52.274;20.964;2022-11-14T10:52:19;5.70;;;5.30;;
53753;SDS011;39667;52.274;20.964;2022-11-14T10:55:14;6.10;;;5.10;;
53753;SDS011;39667;52.274;20.964;2022-11-14T10:58:06;5.30;;;4.90;;
53753;SDS011;39667;52.274;20.964;2022-11-14T11:00:54;5.40;;;4.70;;
53753;SDS011;39667;52.274;20.964;2022-11-14T11:03:40;4.50;;;4.10;;
53753;SDS011;39667;52.274;20.964;2022-11-14T11:06:26;5.20;;;4.70;;
53753;SDS011;39667;52.274;20.964;2022-11-14T11:09:14;4.60;;;4.20;;
53753;SDS011;39667;52.274;20.964;2022-11-14T11:15:21;5.80;;;5.20;;
53753;SDS011;39667;52.274;20.964;2022-11-14T11:18:54;5.80;;;4.90;;
53753;SDS011;39667;52.274;20.964;2022-11-14T11:21:19;6.60;;;5.80;;
53753;SDS011;39667;52.274;20.964;2022-11-14T11:24:06;8.10;;;7.20;;
53753;SDS011;39667;52.274;20.964;2022-11-14T11:27:10;8.50;;;7.70;;
53753;SDS011;39667;52.274;20.964;2022-11-14T11:30:16;10.90;;;9.00;;
53753;SDS011;39667;52.274;20.964;2022-11-14T11:33:21;9.90;;;8.90;;
53753;SDS011;39667;52.274;20.964;2022-11-14T11:36:12;10.60;;;9.20;;
53753;SDS011;39667;52.274;20.964;2022-11-14T11:39:08;11.40;;;9.50;;
53753;SDS011;39667;52.274;20.964;2022-11-14T11:42:04;11.00;;;9.50;;
53753;SDS011;39667;52.274;20.964;2022-11-14T11:45:00;12.30;;;9.50;;
53753;SDS011;39667;52.274;20.964;2022-11-14T11:47:53;11.30;;;10.10;;
53753;SDS011;39667;52.274;20.964;2022-11-14T11:50:41;9.90;;;8.20;;
53753;SDS011;39667;52.274;20.964;2022-11-14T11:53:33;9.90;;;8.20;;
53753;SDS011;39667;52.274;20.964;2022-11-14T11:56:24;8.50;;;7.60;;
53753;SDS011;39667;52.274;20.964;2022-11-14T11:59:16;7.30;;;6.60;;
53753;SDS011;39667;52.274;20.964;2022-11-14T12:02:25;7.80;;;6.40;;
53753;SDS011;39667;52.274;20.964;2022-11-14T12:10:47;8.00;;;6.50;;
53753;SDS011;39667;52.274;20.964;2022-11-14T12:20:13;10.10;;;8.10;;
53753;SDS011;39667;52.274;20.964;2022-11-14T12:23:25;8.10;;;7.20;;
53753;SDS011;39667;52.274;20.964;2022-11-14T12:29:45;8.90;;;8.00;;
53753;SDS011;39667;52.274;20.964;2022-11-14T12:32:45;11.10;;;9.50;;
53753;SDS011;39667;52.274;20.964;2022-11-14T12:35:56;13.10;;;11.80;;
53753;SDS011;39667;52.274;20.964;2022-11-14T12:38:50;14.90;;;13.40;;
53753;SDS011;39667;52.274;20.964;2022-11-14T12:41:37;15.00;;;13.50;;
53753;SDS011;39667;52.274;20.964;2022-11-14T12:47:13;15.40;;;13.80;;
53753;SDS011;39667;52.274;20.964;2022-11-14T12:50:03;16.80;;;15.00;;
53753;SDS011;39667;52.274;20.964;2022-11-14T12:53:35;19.00;;;17.10;;
53753;SDS011;39667;52.274;20.964;2022-11-14T13:11:32;18.30;;;16.00;;
53753;SDS011;39667;52.274;20.964;2022-11-14T13:14:49;20.30;;;17.30;;
53753;SDS011;39667;52.274;20.964;2022-11-14T13:18:28;22.40;;;17.60;;
53753;SDS011;39667;52.274;20.964;2022-11-14T13:21:27;23.10;;;18.20;;
53753;SDS011;39667;52.274;20.964;2022-11-14T13:27:43;25.80;;;20.70;;
53753;SDS011;39667;52.274;20.964;2022-11-14T13:33:51;31.50;;;23.50;;
53753;SDS011;39667;52.274;20.964;2022-11-14T13:40:22;31.90;;;21.50;;
53753;SDS011;39667;52.274;20.964;2022-11-14T13:42:49;30.70;;;21.80;;
53753;SDS011;39667;52.274;20.964;2022-11-14T13:46:05;29.70;;;22.80;;
53753;SDS011;39667;52.274;20.964;2022-11-14T13:52:15;30.40;;;22.90;;
53753;SDS011;39667;52.274;20.964;2022-11-14T13:55:00;29.60;;;19.30;;
53753;SDS011;39667;52.274;20.964;2022-11-14T14:00:53;25.60;;;19.80;;
53753;SDS011;39667;52.274;20.964;2022-11-14T14:31:24;26.20;;;20.20;;
53753;SDS011;39667;52.274;20.964;2022-11-14T14:38:47;21.50;;;17.00;;
53753;SDS011;39667;52.274;20.964;2022-11-14T14:41:34;24.70;;;17.70;;
53753;SDS011;39667;52.274;20.964;2022-11-14T14:44:20;24.00;;;18.40;;
53753;SDS011;39667;52.274;20.964;2022-11-14T14:47:16;23.20;;;18.30;;
53753;SDS011;39667;52.274;20.964;2022-11-14T14:50:22;24.20;;;19.30;;
53753;SDS011;39667;52.274;20.964;2022-11-14T14:56:18;23.10;;;16.80;;
53753;SDS011;39667;52.274;20.964;2022-11-14T14:59:26;21.40;;;17.20;;
53753;SDS011;39667;52.274;20.964;2022-11-14T15:02:15;18.90;;;16.10;;
53753;SDS011;39667;52.274;20.964;2022-11-14T15:05:02;18.10;;;15.60;;
53753;SDS011;39667;52.274;20.964;2022-11-14T15:07:47;19.80;;;17.10;;
53753;SDS011;39667;52.274;20.964;2022-11-14T15:10:36;17.20;;;14.40;;
53753;SDS011;39667;52.274;20.964;2022-11-14T15:13:21;14.60;;;13.10;;
53753;SDS011;39667;52.274;20.964;2022-11-14T15:16:07;14.50;;;12.70;;
53753;SDS011;39667;52.274;20.964;2022-11-14T15:21:39;13.10;;;11.40;;
53753;SDS011;39667;52.274;20.964;2022-11-14T15:24:25;12.30;;;11.10;;
53753;SDS011;39667;52.274;20.964;2022-11-14T15:27:10;13.20;;;11.20;;
53753;SDS011;39667;52.274;20.964;2022-11-14T15:30:03;12.90;;;11.10;;
53753;SDS011;39667;52.274;20.964;2022-11-14T15:32:54;12.60;;;10.90;;
53753;SDS011;39667;52.274;20.964;2022-11-14T15:35:45;13.60;;;11.50;;
53753;SDS011;39667;52.274;20.964;2022-11-14T15:38:29;13.20;;;11.70;;
53753;SDS011;39667;52.274;20.964;2022-11-14T15:41:32;14.60;;;12.80;;
53753;SDS011;39667;52.274;20.964;2022-11-14T15:44:30;14.90;;;12.90;;
53753;SDS011;39667;52.274;20.964;2022-11-14T15:52:59;15.70;;;14.10;;
53753;SDS011;39667;52.274;20.964;2022-11-14T15:55:49;15.60;;;14.10;;
53753;SDS011;39667;52.274;20.964;2022-11-14T15:58:34;15.90;;;14.20;;
53753;SDS011;39667;52.274;20.964;2022-11-14T16:01:21;15.00;;;13.50;;
53753;SDS011;39667;52.274;20.964;2022-11-14T16:04:10;14.10;;;12.10;;
53753;SDS011;39667;52.274;20.964;2022-11-14T16:06:59;14.70;;;12.60;;
53753;SDS011;39667;52.274;20.964;2022-11-14T16:09:44;13.90;;;12.50;;
53753;SDS011;39667;52.274;20.964;2022-11-14T16:12:29;15.20;;;13.70;;
53753;SDS011;39667;52.274;20.964;2022-11-14T16:15:14;15.00;;;12.70;;
53753;SDS011;39667;52.274;20.964;2022-11-14T16:18:00;13.10;;;11.70;;
53753;SDS011;39667;52.274;20.964;2022-11-14T16:20:45;12.60;;;10.90;;
53753;SDS011;39667;52.274;20.964;2022-11-14T16:23:29;11.40;;;10.10;;
53753;SDS011;39667;52.274;20.964;2022-11-14T16:26:15;13.10;;;10.50;;
53753;SDS011;39667;52.274;20.964;2022-11-14T16:28:59;13.70;;;11.10;;
53753;SDS011;39667;52.274;20.964;2022-11-14T16:31:44;11.80;;;10.30;;
53753;SDS011;39667;52.274;20.964;2022-11-14T16:34:29;11.80;;;10.60;;
53753;SDS011;39667;52.274;20.964;2022-11-14T16:37:14;11.80;;;10.60;;
53753;SDS011;39667;52.274;20.964;2022-11-14T16:39:58;11.00;;;9.80;;
53753;SDS011;39667;52.274;20.964;2022-11-14T16:42:43;10.80;;;9.60;;
53753;SDS011;39667;52.274;20.964;2022-11-14T16:45:29;11.70;;;10.40;;
53753;SDS011;39667;52.274;20.964;2022-11-14T16:48:13;11.50;;;10.30;;
53753;SDS011;39667;52.274;20.964;2022-11-14T16:50:59;12.80;;;10.80;;
53753;SDS011;39667;52.274;20.964;2022-11-14T16:54:04;11.40;;;9.80;;
53753;SDS011;39667;52.274;20.964;2022-11-14T16:56:49;12.00;;;10.70;;
53753;SDS011;39667;52.274;20.964;2022-11-14T16:59:34;10.80;;;9.60;;
53753;SDS011;39667;52.274;20.964;2022-11-14T17:02:19;12.00;;;10.00;;
53753;SDS011;39667;52.274;20.964;2022-11-14T17:05:04;10.60;;;9.50;;
53753;SDS011;39667;52.274;20.964;2022-11-14T17:07:50;11.30;;;9.80;;
53753;SDS011;39667;52.274;20.964;2022-11-14T17:10:41;12.80;;;10.90;;
53753;SDS011;39667;52.274;20.964;2022-11-14T17:13:27;11.90;;;10.30;;
53753;SDS011;39667;52.274;20.964;2022-11-14T17:16:14;13.00;;;11.20;;
53753;SDS011;39667;52.274;20.964;2022-11-14T17:18:59;11.90;;;10.70;;
53753;SDS011;39667;52.274;20.964;2022-11-14T17:21:45;10.80;;;9.80;;
53753;SDS011;39667;52.274;20.964;2022-11-14T17:24:29;12.30;;;9.90;;
53753;SDS011;39667;52.274;20.964;2022-11-14T17:27:15;12.40;;;10.10;;
53753;SDS011;39667;52.274;20.964;2022-11-14T17:30:00;12.80;;;11.10;;
53753;SDS011;39667;52.274;20.964;2022-11-14T17:32:45;11.10;;;9.90;;
53753;SDS011;39667;52.274;20.964;2022-11-14T17:35:29;11.30;;;10.00;;
53753;SDS011;39667;52.274;20.964;2022-11-14T17:38:14;13.40;;;10.70;;
53753;SDS011;39667;52.274;20.964;2022-11-14T17:40:59;11.80;;;9.90;;
53753;SDS011;39667;52.274;20.964;2022-11-14T17:43:44;12.70;;;10.40;;
53753;SDS011;39667;52.274;20.964;2022-11-14T17:46:30;11.10;;;9.90;;
53753;SDS011;39667;52.274;20.964;2022-11-14T17:49:16;11.80;;;10.50;;
53753;SDS011;39667;52.274;20.964;2022-11-14T17:52:00;12.30;;;10.90;;
53753;SDS011;39667;52.274;20.964;2022-11-14T17:54:45;17.10;;;11.10;;
53753;SDS011;39667;52.274;20.964;2022-11-14T17:57:30;13.40;;;10.60;;
53753;SDS011;39667;52.274;20.964;2022-11-14T18:00:15;12.90;;;11.60;;
53753;SDS011;39667;52.274;20.964;2022-11-14T18:03:00;14.30;;;11.90;;
53753;SDS011;39667;52.274;20.964;2022-11-14T18:05:45;13.30;;;11.20;;
53753;SDS011;39667;52.274;20.964;2022-11-14T18:08:30;14.60;;;12.50;;
53753;SDS011;39667;52.274;20.964;2022-11-14T18:11:16;16.00;;;13.90;;
53753;SDS011;39667;52.274;20.964;2022-11-14T18:14:01;15.90;;;14.10;;
53753;SDS011;39667;52.274;20.964;2022-11-14T18:16:46;15.70;;;13.40;;
53753;SDS011;39667;52.274;20.964;2022-11-14T18:19:51;15.00;;;12.60;;
53753;SDS011;39667;52.274;20.964;2022-11-14T18:22:36;14.80;;;13.10;;
53753;SDS011;39667;52.274;20.964;2022-11-14T18:25:21;15.00;;;13.20;;
53753;SDS011;39667;52.274;20.964;2022-11-14T18:28:05;17.40;;;14.00;;
53753;SDS011;39667;52.274;20.964;2022-11-14T18:30:54;13.60;;;12.10;;
53753;SDS011;39667;52.274;20.964;2022-11-14T18:33:40;14.10;;;12.70;;
53753;SDS011;39667;52.274;20.964;2022-11-14T18:36:25;14.60;;;12.80;;